Time;durP1;ratioP1;P1;durP2;ratioP2;P2;SDS_P1;SDS_P2;PMS_P1;PMS_P2;Temp;Humidity;BMP_temperature;BMP_pressure;BME280_temperature;BME280_humidity;BME280_pressure;Samples;Min_cycle;Max_cycle;Signal;HPM_P1;HPM_P2
2024/01/22 00:00:08;;;;;;;7.15;4.53;;;;;;;7.11;100.00;100894.13;5013318;28;20381;-79
2024/01/22 00:02:34;;;;;;;10.10;4.28;;;;;;;7.05;100.00;100865.34;5013180;28;20021;-79
2024/01/22 00:04:59;;;;;;;7.50;4.47;;;;;;;7.12;100.00;100867.53;5013505;28;20500;-80
2024/01/22 00:07:24;;;;;;;7.55;4.60;;;;;;;7.17;100.00;100878.41;5013229;28;20029;-79
2024/01/22 00:09:49;;;;;;;6.93;3.70;;;;;;;7.17;100.00;100851.91;4995015;28;20038;-79
2024/01/22 00:12:15;;;;;;;7.05;4.60;;;;;;;7.21;100.00;100868.84;5013266;28;20466;-79
2024/01/22 00:14:40;;;;;;;9.85;4.13;;;;;;;7.25;100.00;100870.34;5013127;28;20026;-79
2024/01/22 00:17:05;;;;;;;9.65;4.32;;;;;;;7.26;100.00;100869.44;5013032;28;20026;-78
2024/01/22 00:19:31;;;;;;;10.18;4.18;;;;;;;7.26;100.00;100845.50;5012919;28;20026;-79
2024/01/22 00:21:56;;;;;;;6.75;4.18;;;;;;;7.27;100.00;100872.84;5012985;28;20057;-79
2024/01/22 00:24:21;;;;;;;10.90;5.03;;;;;;;7.17;100.00;100865.56;5012604;28;20037;-80
2024/01/22 00:26:47;;;;;;;7.30;4.35;;;;;;;7.25;100.00;100860.06;5012893;28;20018;-80
2024/01/22 00:29:12;;;;;;;7.85;3.92;;;;;;;7.09;100.00;100815.53;5012946;28;20466;-80
2024/01/22 00:31:37;;;;;;;6.78;4.15;;;;;;;7.07;100.00;100802.72;5012845;28;20533;-80
2024/01/22 00:34:03;;;;;;;7.78;4.13;;;;;;;7.38;100.00;100837.22;5012764;28;20393;-80
2024/01/22 00:36:28;;;;;;;8.05;4.18;;;;;;;7.40;100.00;100822.53;4994849;28;20092;-79
2024/01/22 00:38:53;;;;;;;6.63;3.72;;;;;;;7.40;100.00;100807.97;5012669;28;20072;-80
2024/01/22 00:41:18;;;;;;;6.32;3.80;;;;;;;7.34;100.00;100772.28;5012881;28;20068;-80
2024/01/22 00:43:44;;;;;;;6.60;3.90;;;;;;;7.29;100.00;100761.44;5012707;28;20517;-79
2024/01/22 00:46:09;;;;;;;9.13;4.15;;;;;;;7.43;100.00;100789.81;5012718;28;20507;-79
2024/01/22 00:48:34;;;;;;;7.80;4.15;;;;;;;7.35;100.00;100773.94;5012786;28;20030;-80
2024/01/22 00:51:00;;;;;;;7.68;4.07;;;;;;;7.50;100.00;100786.94;5012565;28;20057;-81
2024/01/22 00:53:25;;;;;;;7.22;4.00;;;;;;;7.39;100.00;100764.38;5012462;28;20029;-80
2024/01/22 00:55:50;;;;;;;7.55;3.75;;;;;;;7.51;100.00;100775.75;5012672;28;20022;-80
2024/01/22 00:58:16;;;;;;;8.32;4.03;;;;;;;7.59;100.00;100784.72;5012476;28;20029;-77
2024/01/22 01:00:41;;;;;;;6.60;3.72;;;;;;;7.50;100.00;100750.97;5012522;28;20474;-80
2024/01/22 01:03:07;;;;;;;6.45;3.33;;;;;;;7.66;100.00;100768.06;5012470;28;20100;-80
2024/01/22 01:05:32;;;;;;;5.75;3.22;;;;;;;7.66;100.00;100780.91;5012380;28;20060;-81
2024/01/22 01:07:57;;;;;;;5.95;3.15;;;;;;;7.72;100.00;100764.34;4994763;28;20446;-79
2024/01/22 01:10:23;;;;;;;6.57;3.10;;;;;;;7.73;100.00;100764.28;5012258;28;20037;-79
2024/01/22 01:12:48;;;;;;;7.30;3.20;;;;;;;7.75;100.00;100756.47;5012104;28;20112;-79
2024/01/22 01:15:14;;;;;;;6.18;3.17;;;;;;;7.65;100.00;100732.16;5012414;28;20038;-79
2024/01/22 01:17:39;;;;;;;6.43;3.50;;;;;;;7.82;100.00;100769.84;5012393;28;20037;-80
2024/01/22 01:20:05;;;;;;;5.68;3.20;;;;;;;7.87;100.00;100755.84;5012131;28;20032;-79
2024/01/22 01:22:33;;;;;;;6.25;3.35;;;;;;;7.92;100.00;100756.44;5012226;28;20367;-80
2024/01/22 01:24:59;;;;;;;8.60;3.50;;;;;;;7.94;100.00;100757.16;5012314;28;20032;-79
2024/01/22 01:27:24;;;;;;;6.63;3.55;;;;;;;8.04;100.00;100755.78;5012342;28;20038;-80
2024/01/22 01:29:50;;;;;;;7.35;2.85;;;;;;;7.91;100.00;100729.06;5012138;28;20103;-79
2024/01/22 01:32:15;;;;;;;6.57;2.85;;;;;;;7.97;100.00;100749.31;5012287;28;20025;-80
2024/01/22 01:34:41;;;;;;;7.10;3.00;;;;;;;8.05;100.00;100749.72;5012108;28;20445;-79
2024/01/22 01:37:06;;;;;;;6.25;3.10;;;;;;;8.07;100.00;100754.81;5011795;28;20129;-81
2024/01/22 01:39:31;;;;;;;6.45;2.92;;;;;;;8.10;100.00;100743.50;5014256;28;20022;-78
2024/01/22 01:41:56;;;;;;;5.43;2.90;;;;;;;8.12;100.00;100736.53;5015930;28;20053;-80
2024/01/22 01:44:37;;;;;;;4.72;2.63;;;;;;;8.16;100.00;100745.72;5015983;28;20105;-80
2024/01/22 01:47:02;;;;;;;5.50;3.00;;;;;;;8.16;100.00;100746.59;5015581;28;20492;-78
2024/01/22 01:49:28;;;;;;;8.63;3.10;;;;;;;8.20;100.00;100740.34;5015695;28;20038;-79
2024/01/22 01:51:54;;;;;;;4.88;2.65;;;;;;;8.09;100.00;100700.69;5015573;28;20381;-80
2024/01/22 01:54:19;;;;;;;7.47;2.90;;;;;;;8.26;100.00;100714.31;5015588;28;20108;-80
2024/01/22 01:56:45;;;;;;;4.28;2.50;;;;;;;8.20;100.00;100690.66;5015725;28;20033;-80
2024/01/22 01:59:11;;;;;;;5.28;2.30;;;;;;;8.29;100.00;100705.56;5015584;28;20029;-80
2024/01/22 02:01:36;;;;;;;5.00;2.60;;;;;;;8.31;100.00;100719.19;5015512;28;20489;-80
2024/01/22 02:04:01;;;;;;;3.65;2.15;;;;;;;8.33;100.00;100701.91;5015342;28;20030;-80
2024/01/22 02:06:27;;;;;;;5.55;2.40;;;;;;;8.26;100.00;100686.00;4997903;28;20140;-80
2024/01/22 02:08:53;;;;;;;4.93;2.88;;;;;;;8.23;100.00;100675.88;5015489;28;20029;-80
2024/01/22 02:11:24;;;;;;;5.38;2.40;;;;;;;8.32;100.00;100692.53;4997863;28;20027;-79
2024/01/22 02:13:50;;;;;;;;;;;;;;;8.34;100.00;100677.84;5015706;28;20030;-80
2024/01/22 02:16:15;;;;;;;4.55;2.30;;;;;;;8.34;100.00;100662.41;5015172;28;19936;-79
2024/01/22 02:18:41;;;;;;;3.85;2.22;;;;;;;8.27;100.00;100650.81;5015365;28;20025;-79
2024/01/22 02:21:07;;;;;;;4.03;2.25;;;;;;;8.32;100.00;100659.91;5015082;28;20030;-79
2024/01/22 02:23:32;;;;;;;5.05;2.72;;;;;;;8.11;100.00;100630.25;5014865;28;20034;-79
2024/01/22 02:25:57;;;;;;;4.97;2.35;;;;;;;8.37;100.00;100638.28;5015269;28;20022;-79
2024/01/22 02:28:22;;;;;;;4.40;2.45;;;;;;;8.43;100.00;100628.47;5015260;28;20338;-79
2024/01/22 02:30:48;;;;;;;5.28;2.50;;;;;;;8.44;100.00;100622.41;5014754;28;20014;-79
2024/01/22 02:33:13;;;;;;;6.55;2.85;;;;;;;8.44;100.00;100606.13;5014977;28;20041;-80
2024/01/22 02:35:38;;;;;;;5.07;2.58;;;;;;;8.31;100.00;100603.41;5014780;28;20069;-79
2024/01/22 02:38:04;;;;;;;3.95;2.50;;;;;;;8.45;100.00;100615.50;5014595;28;20168;-79
2024/01/22 02:40:29;;;;;;;4.57;2.30;;;;;;;8.47;100.00;100611.94;5014668;28;20417;-78
2024/01/22 02:42:55;;;;;;;5.25;2.40;;;;;;;8.40;100.00;100595.19;5014719;28;20064;-78
2024/01/22 02:45:20;;;;;;;4.93;2.45;;;;;;;8.25;100.00;100571.13;5014614;28;20120;-79
2024/01/22 02:47:45;;;;;;;6.53;2.50;;;;;;;8.28;100.00;100601.03;5014631;28;20384;-78
2024/01/22 02:50:11;;;;;;;4.60;2.40;;;;;;;8.07;100.00;100564.50;5013477;28;20026;-79
2024/01/22 02:52:36;;;;;;;5.10;2.40;;;;;;;8.16;100.00;100587.13;5014272;28;20018;-79
2024/01/22 02:55:01;;;;;;;6.13;2.65;;;;;;;7.97;100.00;100541.03;5014173;28;20103;-78
2024/01/22 02:57:26;;;;;;;4.82;2.30;;;;;;;8.19;100.00;100570.69;5014683;28;20077;-78
2024/01/22 02:59:52;;;;;;;5.68;2.83;;;;;;;8.24;100.00;100550.66;5013220;28;20095;-79
2024/01/22 03:02:17;;;;;;;4.70;2.75;;;;;;;8.26;100.00;100556.56;5014273;28;20489;-78
2024/01/22 03:04:43;;;;;;;5.20;2.53;;;;;;;8.07;100.00;100507.09;5014272;28;20030;-78
2024/01/22 03:07:09;;;;;;;4.53;2.40;;;;;;;8.23;100.00;100530.97;5012928;28;20026;-79
2024/01/22 03:09:34;;;;;;;3.67;2.10;;;;;;;8.04;100.00;100510.66;5014004;28;20509;-78
2024/01/22 03:11:59;;;;;;;4.57;2.38;;;;;;;8.02;100.00;100515.88;5014255;28;20036;-78
2024/01/22 03:14:25;;;;;;;4.82;2.28;;;;;;;7.75;100.00;100472.00;5014017;28;20057;-78
2024/01/22 03:16:50;;;;;;;4.07;2.03;;;;;;;8.09;100.00;100518.94;5014074;28;20030;-78
2024/01/22 03:19:16;;;;;;;4.63;2.50;;;;;;;8.07;100.00;100514.81;5013954;28;20029;-79
2024/01/22 03:21:41;;;;;;;5.28;2.33;;;;;;;8.08;100.00;100506.16;5014020;28;20109;-79
2024/01/22 03:24:06;;;;;;;4.00;2.50;;;;;;;8.09;100.00;100497.53;5013642;28;20080;-78
2024/01/22 03:26:31;;;;;;;5.18;2.42;;;;;;;7.84;100.00;100480.94;5013627;28;20061;-79
2024/01/22 03:28:57;;;;;;;4.05;2.05;;;;;;;8.13;100.00;100502.41;5013968;28;20030;-79
2024/01/22 03:31:24;;;;;;;3.70;2.15;;;;;;;8.14;100.00;100496.34;5013941;28;20466;-79
2024/01/22 03:33:53;;;;;;;4.25;2.30;;;;;;;8.09;100.00;100482.09;5013877;28;20531;-79
2024/01/22 03:36:19;;;;;;;7.50;2.70;;;;;;;8.18;100.00;100479.81;5013483;28;20049;-79
2024/01/22 03:38:45;;;;;;;6.80;2.38;;;;;;;8.27;100.00;100496.47;5013663;28;20363;-79
2024/01/22 03:41:11;;;;;;;4.47;2.40;;;;;;;8.25;100.00;100485.41;5013431;28;20017;-80
2024/01/22 03:43:36;;;;;;;3.63;2.30;;;;;;;8.18;100.00;100463.56;5013542;28;20045;-79
2024/01/22 03:46:02;;;;;;;3.45;2.15;;;;;;;8.27;100.00;100504.19;5013835;28;20113;-78
2024/01/22 03:48:27;;;;;;;4.03;2.08;;;;;;;8.28;100.00;100498.94;5013601;28;20099;-78
2024/01/22 03:50:53;;;;;;;3.55;2.10;;;;;;;8.40;100.00;100473.44;5013661;28;20072;-78
2024/01/22 03:53:19;;;;;;;4.63;1.90;;;;;;;8.27;100.00;100475.88;5013258;28;20414;-79
2024/01/22 03:55:45;;;;;;;2.80;1.90;;;;;;;8.50;100.00;100477.13;5012946;28;20044;-79
2024/01/22 03:58:11;;;;;;;6.40;2.10;;;;;;;8.55;100.00;100477.66;5013040;28;20108;-77
2024/01/22 04:00:37;;;;;;;2.80;1.73;;;;;;;8.54;100.00;100496.59;5013185;28;20469;-79
2024/01/22 04:03:03;;;;;;;5.40;2.10;;;;;;;8.56;100.00;100484.50;5012854;28;20022;-79
2024/01/22 04:05:28;;;;;;;5.35;1.90;;;;;;;8.54;100.00;100487.13;5013274;28;20052;-79
2024/01/22 04:07:54;;;;;;;4.25;1.98;;;;;;;8.43;100.00;100452.66;5013249;28;20029;-80
2024/01/22 04:10:19;;;;;;;4.25;2.08;;;;;;;8.54;100.00;100473.44;5012841;28;20018;-79
2024/01/22 04:12:44;;;;;;;3.58;1.90;;;;;;;8.56;100.00;100474.19;5012989;28;20030;-80
2024/01/22 04:15:10;;;;;;;4.65;1.90;;;;;;;8.48;100.00;100433.47;5013157;28;20025;-80
2024/01/22 04:17:36;;;;;;;2.30;1.80;;;;;;;8.40;100.00;100424.56;5013138;28;20033;-80
2024/01/22 04:20:01;;;;;;;3.17;1.80;;;;;;;8.70;100.00;100451.00;5013301;28;20030;-80
2024/01/22 04:22:27;;;;;;;4.90;1.67;;;;;;;8.77;100.00;100464.34;5012865;28;20033;-80
2024/01/22 04:24:52;;;;;;;3.13;1.70;;;;;;;8.80;100.00;100443.53;5012761;28;20161;-80
2024/01/22 04:27:17;;;;;;;3.85;1.80;;;;;;;8.88;100.00;100457.59;5012817;28;20109;-80
2024/01/22 04:29:43;;;;;;;2.63;1.65;;;;;;;8.84;100.00;100450.97;5013004;28;20454;-80
2024/01/22 04:32:08;;;;;;;3.22;1.67;;;;;;;8.90;100.00;100444.63;5012955;28;20021;-80
2024/01/22 04:34:35;;;;;;;3.33;1.60;;;;;;;9.00;100.00;100462.91;5012705;28;20022;-80
2024/01/22 04:37:00;;;;;;;2.25;1.50;;;;;;;8.99;100.00;100454.34;5012524;28;20049;-80
2024/01/22 04:39:26;;;;;;;3.63;1.70;;;;;;;9.08;100.00;100453.78;5012646;28;20116;-80
2024/01/22 04:41:51;;;;;;;3.10;1.60;;;;;;;9.03;100.00;100427.47;5012617;28;20072;-80
2024/01/22 04:44:16;;;;;;;2.75;1.40;;;;;;;9.15;100.00;100457.63;5012660;28;20425;-79
2024/01/22 04:46:42;;;;;;;5.13;1.80;;;;;;;9.05;100.00;100430.81;5012639;28;20032;-80
2024/01/22 04:49:08;;;;;;;4.07;1.70;;;;;;;9.17;100.00;100450.63;5012628;28;20144;-80
2024/01/22 04:51:34;;;;;;;2.25;1.55;;;;;;;9.20;100.00;100437.53;5012589;28;20018;-79
2024/01/22 04:53:59;;;;;;;3.72;1.70;;;;;;;9.26;100.00;100438.91;5012693;28;20607;-80
2024/01/22 04:56:24;;;;;;;4.40;1.70;;;;;;;9.24;100.00;100430.44;5012424;28;20129;-80
2024/01/22 04:58:50;;;;;;;3.42;1.50;;;;;;;8.98;100.00;100415.81;5012446;28;20076;-80
2024/01/22 05:01:15;;;;;;;3.63;1.58;;;;;;;9.10;100.00;100427.94;5012737;28;20037;-80
2024/01/22 05:03:41;;;;;;;3.17;1.52;;;;;;;9.09;100.00;100405.66;5012423;28;20042;-79
2024/01/22 05:06:06;;;;;;;3.45;1.73;;;;;;;9.09;100.00;100436.56;5012334;28;20022;-79
2024/01/22 05:08:31;;;;;;;3.92;1.60;;;;;;;9.09;100.00;100414.22;5012532;28;20030;-80
2024/01/22 05:10:57;;;;;;;3.03;1.38;;;;;;;9.13;100.00;100410.50;5012274;28;20405;-79
2024/01/22 05:13:22;;;;;;;2.67;1.40;;;;;;;9.20;100.00;100427.25;5012408;28;20066;-79
2024/01/22 05:15:48;;;;;;;2.97;1.60;;;;;;;9.16;100.00;100412.09;4998525;28;20022;-79
2024/01/22 05:18:13;;;;;;;3.25;1.33;;;;;;;9.12;100.00;100371.97;5016290;28;20030;-80
2024/01/22 05:20:38;;;;;;;4.65;1.60;;;;;;;9.19;100.00;100380.97;5016079;28;20033;-80
2024/01/22 05:23:04;;;;;;;3.35;1.52;;;;;;;9.36;100.00;100409.06;5016145;28;20037;-79
2024/01/22 05:25:29;;;;;;;4.13;1.38;;;;;;;9.37;100.00;100395.25;5016114;28;20037;-80
2024/01/22 05:27:54;;;;;;;4.47;1.27;;;;;;;9.43;100.00;100394.84;5016288;28;20022;-80
2024/01/22 05:30:20;;;;;;;2.33;1.40;;;;;;;9.54;100.00;100407.06;5016086;28;20072;-80
2024/01/22 05:32:45;;;;;;;4.00;1.48;;;;;;;9.66;100.00;100419.13;5016085;28;20470;-80
2024/01/22 05:35:13;;;;;;;4.00;1.67;;;;;;;9.68;100.00;100432.75;5016002;28;20026;-80
2024/01/22 05:37:38;;;;;;;4.43;1.50;;;;;;;9.49;100.00;100376.41;5015947;28;20022;-81
2024/01/22 05:40:04;;;;;;;3.90;1.42;;;;;;;9.78;100.00;100426.06;5016210;28;20026;-80
2024/01/22 05:42:31;;;;;;;4.22;1.55;;;;;;;9.71;100.00;100400.75;5014635;28;20034;-80
2024/01/22 05:44:56;;;;;;;2.97;1.17;;;;;;;9.92;100.00;100432.88;5015602;28;20040;-80
2024/01/22 05:47:21;;;;;;;4.13;1.23;;;;;;;9.77;100.00;100400.38;5015607;28;20022;-80
2024/01/22 05:49:47;;;;;;;2.15;1.15;;;;;;;9.97;100.00;100433.41;5015888;28;20100;-80
2024/01/22 05:52:12;;;;;;;2.05;1.20;;;;;;;10.00;100.00;100440.91;5015746;28;20112;-80
2024/01/22 05:54:37;;;;;;;3.58;1.25;;;;;;;9.65;100.00;100390.88;5015295;28;20034;-81
2024/01/22 05:57:03;;;;;;;2.92;1.30;;;;;;;9.99;100.00;100433.28;5015619;28;20032;-81
2024/01/22 05:59:29;;;;;;;4.80;1.58;;;;;;;9.97;100.00;100440.31;5015572;28;20076;-80
2024/01/22 06:01:55;;;;;;;4.25;1.30;;;;;;;9.87;100.00;100431.53;5015196;28;20029;-80
2024/01/22 06:04:22;;;;;;;3.33;1.30;;;;;;;9.88;100.00;100426.25;4998135;28;20527;-80
2024/01/22 06:06:48;;;;;;;2.72;1.25;;;;;;;9.84;100.00;100427.41;5015476;28;20125;-80
2024/01/22 06:09:14;;;;;;;4.63;1.52;;;;;;;9.93;100.00;100455.19;5015363;28;20079;-81
2024/01/22 06:11:39;;;;;;;2.95;1.30;;;;;;;9.90;100.00;100447.63;5015227;28;20100;-80
2024/01/22 06:14:04;;;;;;;5.00;1.30;;;;;;;9.87;100.00;100434.94;5015183;28;20038;-80
2024/01/22 06:16:30;;;;;;;3.28;1.35;;;;;;;9.73;100.00;100424.69;5015018;28;20030;-80
2024/01/22 06:18:55;;;;;;;4.35;1.50;;;;;;;9.75;100.00;100428.00;5015344;28;20167;-80
2024/01/22 06:21:20;;;;;;;3.30;1.50;;;;;;;9.71;100.00;100427.38;5015165;28;20033;-80
2024/01/22 06:23:46;;;;;;;2.83;1.30;;;;;;;9.70;100.00;100432.63;5015081;28;20091;-80
2024/01/22 06:26:12;;;;;;;4.15;1.48;;;;;;;9.70;100.00;100437.78;5014692;28;20030;-80
2024/01/22 06:28:38;;;;;;;2.22;1.30;;;;;;;9.63;100.00;100433.94;5014944;28;20025;-80
2024/01/22 06:31:03;;;;;;;2.65;1.33;;;;;;;9.65;100.00;100439.84;5014846;28;20032;-79
2024/01/22 06:33:29;;;;;;;1.60;0.90;;;;;;;9.36;100.00;100406.50;5014803;28;20466;-80
2024/01/22 06:35:54;;;;;;;2.88;1.30;;;;;;;9.59;100.00;100443.66;4997007;28;20041;-80
2024/01/22 06:38:19;;;;;;;5.78;1.30;;;;;;;9.58;100.00;100446.34;5014738;28;20128;-81
2024/01/22 06:40:45;;;;;;;2.70;1.02;;;;;;;9.58;100.00;100441.19;5014780;28;20026;-80
2024/01/22 06:43:11;;;;;;;2.17;1.10;;;;;;;9.54;100.00;100440.56;5014354;28;20034;-80
2024/01/22 06:45:37;;;;;;;2.42;1.23;;;;;;;9.53;100.00;100440.63;5014603;28;20116;-81
2024/01/22 06:48:03;;;;;;;3.05;1.20;;;;;;;9.61;100.00;100446.94;5014629;28;20378;-80
2024/01/22 06:50:28;;;;;;;3.65;1.13;;;;;;;9.40;100.00;100425.97;5014430;28;20443;-80
2024/01/22 06:52:54;;;;;;;1.88;1.00;;;;;;;9.54;100.00;100439.69;5014797;28;20029;-80
2024/01/22 06:55:19;;;;;;;2.10;0.88;;;;;;;9.71;100.00;100462.66;5014389;28;20437;-79
2024/01/22 06:57:45;;;;;;;4.82;1.30;;;;;;;9.77;100.00;100468.25;4996605;28;20536;-80
2024/01/22 07:00:11;;;;;;;2.55;1.10;;;;;;;9.48;100.00;100422.91;5014356;28;20030;-80
2024/01/22 07:02:41;;;;;;;2.78;0.93;;;;;;;9.86;100.00;100468.56;4996670;28;20052;-80
2024/01/22 07:05:08;;;;;;;3.40;1.00;;;;;;;9.85;100.00;100477.22;5014513;28;20030;-79
2024/01/22 07:07:33;;;;;;;3.30;1.10;;;;;;;9.73;100.00;100458.22;5014377;28;20029;-78
2024/01/22 07:09:59;;;;;;;1.65;0.73;;;;;;;9.71;100.00;100465.22;5014370;28;20022;-79
2024/01/22 07:12:25;;;;;;;1.48;0.82;;;;;;;9.73;100.00;100463.38;5014174;28;20037;-79
2024/01/22 07:14:50;;;;;;;3.17;1.10;;;;;;;9.78;100.00;100479.38;5014008;28;20088;-78
2024/01/22 07:17:17;;;;;;;2.20;0.90;;;;;;;9.81;100.00;100493.81;5014035;28;20026;-79
2024/01/22 07:19:45;;;;;;;2.10;0.90;;;;;;;9.84;100.00;100478.16;5014376;28;20018;-79
2024/01/22 07:22:11;;;;;;;3.17;1.00;;;;;;;9.76;100.00;100461.44;5014219;28;20109;-78
2024/01/22 07:24:36;;;;;;;4.40;1.05;;;;;;;9.91;100.00;100479.41;5014147;28;20109;-79
2024/01/22 07:27:02;;;;;;;4.40;1.23;;;;;;;9.92;100.00;100475.88;5013796;28;20022;-79
2024/01/22 07:29:27;;;;;;;6.57;1.35;;;;;;;9.74;100.00;100463.28;5013865;28;20109;-79
2024/01/22 07:31:53;;;;;;;4.57;1.08;;;;;;;9.81;100.00;100478.34;5013837;28;20018;-78
2024/01/22 07:34:19;;;;;;;5.38;1.48;;;;;;;9.66;100.00;100482.75;5013534;28;20429;-79
2024/01/22 07:36:44;;;;;;;4.82;1.50;;;;;;;9.64;100.00;100482.03;5013014;28;20089;-80
2024/01/22 07:39:11;;;;;;;5.55;1.50;;;;;;;9.56;100.00;100477.38;5013688;28;20026;-79
2024/01/22 07:41:38;;;;;;;4.88;1.33;;;;;;;9.57;100.00;100503.97;5010930;28;20543;-75
2024/01/22 07:44:04;;;;;;;8.70;1.83;;;;;;;9.59;100.00;100499.53;4996470;28;20488;-79
2024/01/22 07:46:30;;;;;;;6.82;1.70;;;;;;;9.58;100.00;100496.13;5013362;28;20079;-79
2024/01/22 07:48:55;;;;;;;7.07;1.90;;;;;;;9.51;100.00;100487.13;5013388;28;20378;-78
2024/01/22 07:51:21;;;;;;;9.85;2.80;;;;;;;9.46;100.00;100463.41;5013476;28;20389;-76
2024/01/22 07:53:46;;;;;;;6.53;2.03;;;;;;;9.70;100.00;100507.41;5013224;28;20366;-78
2024/01/22 07:56:12;;;;;;;7.35;1.90;;;;;;;9.49;100.00;100471.78;5013426;28;20379;-76
2024/01/22 07:58:39;;;;;;;7.28;1.90;;;;;;;9.57;100.00;100485.94;5011877;28;20052;-77
2024/01/22 08:01:05;;;;;;;7.43;2.40;;;;;;;9.35;100.00;100455.56;5013227;28;20095;-78
2024/01/22 08:03:30;;;;;;;8.43;2.80;;;;;;;9.58;100.00;100498.72;5013061;28;20465;-79
2024/01/22 08:05:56;;;;;;;8.40;2.40;;;;;;;9.55;100.00;100487.78;5013113;28;20030;-80
2024/01/22 08:08:21;;;;;;;9.35;2.38;;;;;;;9.54;100.00;100511.88;5012993;28;20477;-78
2024/01/22 08:10:47;;;;;;;8.20;2.28;;;;;;;9.53;100.00;100503.31;5013200;28;20061;-75
2024/01/22 08:13:12;;;;;;;12.32;2.55;;;;;;;9.54;100.00;100506.72;5012936;28;20079;-76
2024/01/22 08:15:38;;;;;;;11.05;2.38;;;;;;;9.55;100.00;100509.22;5013061;28;20385;-77
2024/01/22 08:18:03;;;;;;;12.88;2.88;;;;;;;9.54;100.00;100511.88;5013276;28;20367;-81
2024/01/22 08:20:29;;;;;;;8.52;2.03;;;;;;;9.53;100.00;100516.22;5013026;28;20498;-78
2024/01/22 08:22:54;;;;;;;12.05;2.30;;;;;;;9.59;100.00;100515.84;5013207;28;20097;-79
2024/01/22 08:25:26;;;;;;;10.27;2.90;;;;;;;9.59;100.00;100527.91;5013285;28;20529;-79
2024/01/22 08:27:52;;;;;;;10.18;2.72;;;;;;;9.54;100.00;100528.19;5011615;28;20042;-80
2024/01/22 08:30:17;;;;;;;10.63;2.67;;;;;;;9.37;100.00;100506.06;5012890;28;20071;-83
2024/01/22 08:32:42;;;;;;;10.60;2.80;;;;;;;9.55;100.00;100521.28;5013075;28;20105;-83
2024/01/22 08:35:09;;;;;;;8.60;2.70;;;;;;;9.57;100.00;100527.16;5012483;28;20496;-83
2024/01/22 08:37:37;;;;;;;9.38;2.45;;;;;;;9.47;100.00;100504.56;5013238;28;20113;-83
2024/01/22 08:40:05;;;;;;;11.73;2.83;;;;;;;9.41;100.00;100527.31;5011738;28;20052;-83
2024/01/22 08:42:32;;;;;;;9.77;2.10;;;;;;;9.53;100.00;100536.81;5012864;28;20389;-84
2024/01/22 08:44:57;;;;;;;8.27;2.28;;;;;;;9.48;100.00;100541.47;5012724;28;20025;-83
2024/01/22 08:47:22;;;;;;;14.93;2.83;;;;;;;9.12;100.00;100491.28;5012809;28;20072;-82
2024/01/22 08:49:47;;;;;;;9.98;2.33;;;;;;;9.42;100.00;100536.69;5012431;28;20389;-81
2024/01/22 08:52:13;;;;;;;10.35;2.15;;;;;;;9.40;100.00;100541.13;5011705;28;20378;-79
2024/01/22 08:54:38;;;;;;;9.80;2.10;;;;;;;9.37;100.00;100546.47;5013064;28;20025;-79
2024/01/22 08:57:04;;;;;;;11.93;2.25;;;;;;;9.37;100.00;100542.13;5013318;28;20022;-81
2024/01/22 08:59:29;;;;;;;10.18;3.17;;;;;;;9.18;100.00;100500.41;5012464;28;20026;-82
2024/01/22 09:01:54;;;;;;;8.90;2.55;;;;;;;9.36;100.00;100535.34;5012659;28;20076;-77
2024/01/22 09:04:20;;;;;;;7.80;2.42;;;;;;;9.34;100.00;100532.03;5012483;28;20026;-77
2024/01/22 09:06:45;;;;;;;11.57;3.08;;;;;;;9.33;100.00;100532.94;5012408;28;20045;-78
2024/01/22 09:09:10;;;;;;;17.05;3.10;;;;;;;9.24;100.00;100524.94;5012496;28;20462;-79
2024/01/22 09:11:36;;;;;;;14.10;4.32;;;;;;;9.25;100.00;100530.03;5011141;28;20081;-79
2024/01/22 09:14:02;;;;;;;14.70;3.50;;;;;;;9.29;100.00;100530.66;5012196;28;20026;-79
2024/01/22 09:16:27;;;;;;;13.52;3.60;;;;;;;9.28;100.00;100529.00;5012648;28;20026;-81
2024/01/22 09:18:52;;;;;;;17.25;3.42;;;;;;;9.24;100.00;100520.63;5012414;28;20086;-82
2024/01/22 09:21:18;;;;;;;16.40;3.88;;;;;;;9.27;100.00;100530.75;5012449;28;20025;-77
2024/01/22 09:23:43;;;;;;;14.70;3.08;;;;;;;9.21;100.00;100531.13;5012544;28;20042;-80
2024/01/22 09:26:08;;;;;;;14.95;3.20;;;;;;;9.07;100.00;100487.38;5012591;28;20060;-77
2024/01/22 09:28:34;;;;;;;14.05;3.53;;;;;;;9.22;100.00;100519.06;5012355;28;20026;-78
2024/01/22 09:31:00;;;;;;;20.58;4.28;;;;;;;9.06;100.00;100490.88;5012561;28;20021;-81
2024/01/22 09:33:26;;;;;;;13.70;3.55;;;;;;;9.22;100.00;100521.63;5010857;28;20041;-82
2024/01/22 09:35:51;;;;;;;19.65;4.03;;;;;;;9.08;100.00;100507.88;5012141;28;20042;-84
2024/01/22 09:38:18;;;;;;;23.20;4.70;;;;;;;9.07;100.00;100502.81;5011703;28;20060;-81
2024/01/22 09:40:43;;;;;;;23.08;3.97;;;;;;;9.06;100.00;100496.03;5012452;28;20029;-81
2024/01/22 09:43:09;;;;;;;14.82;3.40;;;;;;;9.02;100.00;100497.13;5012424;28;20052;-80
2024/01/22 09:45:36;;;;;;;17.77;3.95;;;;;;;9.05;100.00;100500.34;5011856;28;20120;-80
2024/01/22 09:48:02;;;;;;;18.50;3.95;;;;;;;9.22;100.00;100529.38;5012316;28;20037;-80
2024/01/22 09:50:28;;;;;;;15.50;3.83;;;;;;;9.20;100.00;100526.91;5012325;28;20026;-79
2024/01/22 09:53:02;;;;;;;12.25;3.08;;;;;;;9.16;100.00;100522.88;5012302;28;20041;-79
2024/01/22 09:55:27;;;;;;;18.40;3.67;;;;;;;9.20;100.00;100538.03;5012277;28;20505;-81
2024/01/22 09:57:53;;;;;;;14.02;3.47;;;;;;;9.23;100.00;100559.34;5012177;28;20060;-80
2024/01/22 10:00:26;;;;;;;15.40;3.53;;;;;;;9.21;100.00;100616.13;5013402;28;20034;-84
2024/01/22 10:02:56;;;;;;;12.80;2.55;;;;;;;9.05;100.00;100639.44;5015957;28;20022;-79
2024/01/22 10:05:21;;;;;;;15.15;2.92;;;;;;;8.83;100.00;100649.31;5015758;28;20026;-80
2024/01/22 10:07:48;;;;;;;12.35;2.42;;;;;;;8.58;100.00;100660.22;5015768;28;20033;-78
2024/01/22 10:10:14;;;;;;;13.45;2.65;;;;;;;8.39;100.00;100662.19;5015766;28;20485;-79
2024/01/22 10:12:59;;;;;;;10.32;2.50;;;;;;;8.23;100.00;100665.56;5015740;28;20072;-79
2024/01/22 10:15:26;;;;;;;13.95;2.53;;;;;;;8.14;100.00;100675.53;5015354;28;20152;-81
2024/01/22 10:17:52;;;;;;;11.05;2.42;;;;;;;7.90;100.00;100641.72;5015607;28;20359;-79
2024/01/22 10:20:22;;;;;;;11.57;2.22;;;;;;;7.62;100.00;100606.41;5015418;28;20040;-77
2024/01/22 10:22:47;;;;;;;14.15;2.50;;;;;;;7.79;100.00;100652.59;5015743;28;20440;-79
2024/01/22 10:25:13;;;;;;;13.43;2.92;;;;;;;7.82;100.00;100665.28;5015394;28;20026;-80
2024/01/22 10:27:38;;;;;;;15.38;3.17;;;;;;;7.83;100.00;100684.94;5015363;28;20037;-81
2024/01/22 10:30:14;;;;;;;15.65;2.70;;;;;;;7.80;100.00;100692.00;5015012;28;20026;-81
2024/01/22 10:32:39;;;;;;;13.40;2.85;;;;;;;7.75;100.00;100700.75;5015243;28;20061;-82
2024/01/22 10:35:21;;;;;;;14.20;2.70;;;;;;;7.73;100.00;100705.16;5015181;28;20810;-80
2024/01/22 10:37:47;;;;;;;;;;;;;;;7.70;100.00;100707.06;5015534;28;20129;-82
2024/01/22 10:40:15;;;;;;;14.93;3.10;;;;;;;7.66;100.00;100706.38;5014159;28;20003;-81
2024/01/22 10:42:44;;;;;;;19.83;3.45;;;;;;;7.40;100.00;100671.81;4997506;28;20026;-78
2024/01/22 10:45:12;;;;;;;21.83;4.85;;;;;;;7.60;100.00;100700.75;5013320;28;20033;-78
2024/01/22 10:47:41;;;;;;;20.27;3.30;;;;;;;7.25;100.00;100654.59;5015516;28;20026;-80
2024/01/22 10:50:21;;;;;;;25.20;4.72;;;;;;;6.73;100.00;100556.34;5014887;28;20052;-80
2024/01/22 10:53:42;;;;;;;22.48;4.38;;;;;;;7.79;100.00;100721.19;4997233;28;20030;-79
2024/01/22 10:56:29;;;;;;;21.17;4.32;;;;;;;7.19;100.00;100603.56;5014732;28;20034;-82
2024/01/22 10:59:00;;;;;;;23.77;4.22;;;;;;;7.70;100.00;100678.81;5014868;28;20220;-82
2024/01/22 11:01:26;;;;;;;25.58;3.90;;;;;;;7.87;100.00;100683.88;5014640;28;20030;-81
2024/01/22 11:03:53;;;;;;;27.73;5.30;;;;;;;8.20;100.00;100719.78;5014628;28;20395;-82
2024/01/22 11:06:35;;;;;;;22.13;5.40;;;;;;;7.75;100.00;100644.22;5014363;28;20022;-80
2024/01/22 11:11:27;;;;;;;25.23;6.55;;;;;;;8.10;100.00;100705.75;5002953;23;20046;-82
2024/01/22 11:14:03;;;;;;;34.15;5.97;;;;;;;8.20;100.00;100717.19;4994823;28;20305;-81
2024/01/22 11:16:30;;;;;;;26.73;5.75;;;;;;;7.94;100.00;100671.50;4993555;28;20022;-80
2024/01/22 11:19:04;;;;;;;27.63;6.22;;;;;;;7.98;100.00;100680.72;4994791;28;20042;-80
2024/01/22 11:21:35;;;;;;;28.23;6.53;;;;;;;8.03;100.00;100691.56;4994743;28;20031;-81